createdAt,value
2023-04-27T00:00:56.369Z,3.73
2023-04-27T00:02:58.313Z,3.70
2023-04-27T00:05:00.447Z,3.70
2023-04-27T00:07:02.216Z,3.53
2023-04-27T00:09:04.404Z,3.40
2023-04-27T00:11:06.668Z,3.50
2023-04-27T00:13:08.408Z,3.40
2023-04-27T00:15:11.106Z,3.33
2023-04-27T00:17:12.804Z,3.40
2023-04-27T00:19:15.361Z,3.40
2023-04-27T00:21:17.283Z,4.03
2023-04-27T00:23:18.969Z,3.70
2023-04-27T00:25:21.044Z,3.83
2023-04-27T00:27:22.880Z,3.30
2023-04-27T00:29:24.784Z,4.00
2023-04-27T00:31:26.715Z,3.70
2023-04-27T00:33:28.356Z,3.00
2023-04-27T00:35:30.015Z,3.30
2023-04-27T00:37:31.762Z,3.90
2023-04-27T00:39:35.428Z,3.40
2023-04-27T00:41:39.423Z,3.73
2023-04-27T00:43:45.933Z,3.60
2023-04-27T00:45:47.635Z,3.80
2023-04-27T00:47:49.903Z,3.83
2023-04-27T00:49:51.987Z,4.23
2023-04-27T00:51:53.936Z,4.10
2023-04-27T00:53:57.837Z,3.97
2023-04-27T00:55:59.475Z,3.87
2023-04-27T00:58:01.309Z,3.80
2023-04-27T01:00:10.964Z,4.30
2023-04-27T01:02:13.790Z,3.53
2023-04-27T01:04:18.197Z,3.63
2023-04-27T01:06:20.085Z,3.90
2023-04-27T01:08:21.703Z,4.57
2023-04-27T01:10:23.634Z,3.60
2023-04-27T01:12:25.552Z,3.53
2023-04-27T01:14:27.234Z,3.50
2023-04-27T01:16:29.136Z,3.60
2023-04-27T01:18:31.029Z,3.20
2023-04-27T01:20:32.728Z,3.77
2023-04-27T01:22:34.403Z,3.37
2023-04-27T01:24:36.575Z,3.80
2023-04-27T01:26:38.247Z,3.97
2023-04-27T01:28:39.931Z,4.17
2023-04-27T01:30:41.673Z,3.80
2023-04-27T01:32:43.403Z,3.80
2023-04-27T01:34:45.301Z,3.53
2023-04-27T01:36:46.966Z,3.30
2023-04-27T01:38:48.638Z,3.60
2023-04-27T01:40:50.769Z,3.03
2023-04-27T01:42:52.471Z,3.40
2023-04-27T01:44:54.773Z,3.60
2023-04-27T01:46:56.464Z,3.00
2023-04-27T01:48:58.552Z,3.30
2023-04-27T01:51:00.338Z,3.57
2023-04-27T01:53:01.964Z,3.30
2023-04-27T01:55:03.925Z,3.27
2023-04-27T01:57:05.615Z,3.40
2023-04-27T01:59:07.440Z,3.50
2023-04-27T02:01:09.141Z,3.67
2023-04-27T02:03:11.076Z,3.33
2023-04-27T02:05:12.821Z,3.93
2023-04-27T02:07:14.521Z,3.17
2023-04-27T02:09:16.368Z,3.67
2023-04-27T02:11:18.152Z,3.80
2023-04-27T02:13:19.940Z,3.50
2023-04-27T02:15:21.564Z,3.43
2023-04-27T02:17:23.264Z,3.60
2023-04-27T02:19:25.005Z,3.73
2023-04-27T02:21:26.664Z,3.50
2023-04-27T02:23:28.414Z,3.57
2023-04-27T02:25:30.479Z,3.33
2023-04-27T02:27:32.125Z,3.60
2023-04-27T02:29:37.582Z,3.70
2023-04-27T02:31:39.530Z,3.80
2023-04-27T02:33:41.924Z,3.77
2023-04-27T02:35:43.700Z,3.53
2023-04-27T02:37:45.424Z,4.03
2023-04-27T02:39:47.286Z,4.03
2023-04-27T02:41:49.134Z,3.53
2023-04-27T02:43:51.653Z,3.60
2023-04-27T02:45:53.498Z,3.23
2023-04-27T02:47:55.298Z,3.57
2023-04-27T02:49:56.972Z,3.10
2023-04-27T02:51:58.792Z,3.00
2023-04-27T02:54:00.500Z,3.47
2023-04-27T02:56:02.155Z,3.57
2023-04-27T02:58:04.195Z,3.73
2023-04-27T03:00:06.969Z,3.57
2023-04-27T03:02:08.770Z,3.57
2023-04-27T03:04:10.892Z,3.40
2023-04-27T03:06:12.672Z,3.50
2023-04-27T03:08:14.674Z,3.27
2023-04-27T03:10:16.354Z,3.70
2023-04-27T03:12:18.088Z,3.47
2023-04-27T03:14:19.793Z,3.10
2023-04-27T03:16:21.511Z,2.90
2023-04-27T03:18:23.244Z,3.30
2023-04-27T03:20:25.224Z,3.10
2023-04-27T03:22:26.860Z,2.90
2023-04-27T03:24:28.572Z,2.93
2023-04-27T03:26:30.229Z,3.67
2023-04-27T03:28:31.973Z,3.40
2023-04-27T03:30:33.676Z,3.10
2023-04-27T03:32:35.537Z,3.03
2023-04-27T03:34:37.250Z,3.17
2023-04-27T03:36:38.912Z,3.83
2023-04-27T03:38:40.862Z,3.13
2023-04-27T03:40:42.521Z,3.20
2023-04-27T03:42:44.169Z,3.00
2023-04-27T03:44:45.917Z,3.50
2023-04-27T03:46:47.564Z,3.50
2023-04-27T03:48:49.208Z,3.00
2023-04-27T03:50:51.233Z,3.50
2023-04-27T03:52:52.950Z,2.70
2023-04-27T03:54:54.603Z,3.37
2023-04-27T03:56:56.490Z,2.97
2023-04-27T03:58:58.132Z,3.90
2023-04-27T04:00:59.771Z,3.07
2023-04-27T04:03:01.686Z,3.00
2023-04-27T04:05:03.774Z,3.43
2023-04-27T04:07:05.856Z,3.60
2023-04-27T04:09:07.550Z,3.53
2023-04-27T04:11:09.276Z,2.80
2023-04-27T04:13:10.961Z,3.20
2023-04-27T04:15:12.657Z,2.97
2023-04-27T04:17:14.837Z,3.07
2023-04-27T04:19:16.663Z,2.97
2023-04-27T04:21:18.470Z,3.40
2023-04-27T04:23:20.134Z,3.13
2023-04-27T04:25:21.771Z,3.20
2023-04-27T04:27:23.487Z,3.17
2023-04-27T04:29:25.527Z,2.77
2023-04-27T04:31:27.686Z,3.20
2023-04-27T04:33:29.487Z,3.70
2023-04-27T04:35:33.103Z,3.20
2023-04-27T04:37:38.027Z,2.83
2023-04-27T04:39:39.713Z,3.43
2023-04-27T04:41:41.479Z,3.27
2023-04-27T04:43:43.120Z,3.10
2023-04-27T04:45:44.735Z,3.43
2023-04-27T04:47:47.334Z,2.50
2023-04-27T04:49:49.039Z,3.40
2023-04-27T04:51:50.984Z,3.30
2023-04-27T04:53:52.618Z,2.97
2023-04-27T04:55:54.389Z,4.10
2023-04-27T04:57:56.084Z,3.37
2023-04-27T04:59:58.006Z,2.87
2023-04-27T05:01:59.786Z,2.90
2023-04-27T05:04:01.812Z,3.83
2023-04-27T05:06:03.737Z,4.57
2023-04-27T05:08:06.100Z,4.23
2023-04-27T05:10:08.071Z,3.80
2023-04-27T05:12:10.293Z,3.37
2023-04-27T05:14:12.425Z,3.80
2023-04-27T05:16:14.151Z,3.70
2023-04-27T05:18:15.868Z,3.80
2023-04-27T05:20:17.684Z,3.40
2023-04-27T05:22:19.337Z,3.90
2023-04-27T05:24:21.054Z,3.77
2023-04-27T05:26:22.736Z,2.70
2023-04-27T05:28:24.375Z,3.70
2023-04-27T05:30:27.024Z,2.83
2023-04-27T05:32:28.686Z,3.47
2023-04-27T05:34:30.452Z,3.20
2023-04-27T05:36:32.087Z,3.20
2023-04-27T05:38:35.924Z,3.20
2023-04-27T05:40:37.650Z,3.37
2023-04-27T05:42:39.318Z,3.20
2023-04-27T05:44:41.098Z,2.83
2023-04-27T05:46:42.841Z,3.10
2023-04-27T05:48:44.621Z,3.10
2023-04-27T05:50:46.518Z,2.60
2023-04-27T05:52:48.199Z,2.83
2023-04-27T05:54:50.997Z,2.97
2023-04-27T05:56:52.788Z,2.90
2023-04-27T05:58:54.407Z,3.17
2023-04-27T06:00:57.324Z,2.60
2023-04-27T06:02:59.105Z,3.30
2023-04-27T06:05:01.047Z,2.60
2023-04-27T06:07:07.696Z,2.77
2023-04-27T06:09:09.431Z,3.30
2023-04-27T06:11:11.122Z,2.97
2023-04-27T06:13:12.798Z,3.20
2023-04-27T06:15:14.585Z,2.90
2023-04-27T06:17:16.401Z,2.97
2023-04-27T06:19:18.061Z,2.93
2023-04-27T06:21:19.821Z,2.90
2023-04-27T06:23:21.514Z,2.27
2023-04-27T06:25:26.608Z,2.40
2023-04-27T06:27:29.302Z,2.97
2023-04-27T06:29:31.396Z,3.03
2023-04-27T06:31:33.335Z,2.13
2023-04-27T06:33:35.047Z,3.20
2023-04-27T06:35:36.817Z,2.80
2023-04-27T06:37:39.026Z,3.07
2023-04-27T06:39:41.493Z,3.07
2023-04-27T06:41:43.479Z,3.10
2023-04-27T06:43:45.364Z,2.90
2023-04-27T06:45:47.466Z,2.90
2023-04-27T06:47:49.209Z,2.90
2023-04-27T06:49:51.371Z,3.40
2023-04-27T06:51:53.532Z,3.70
2023-04-27T06:53:57.331Z,3.53
2023-04-27T06:55:59.549Z,3.17
2023-04-27T06:58:01.557Z,3.53
2023-04-27T07:00:05.130Z,3.00
2023-04-27T07:02:07.845Z,3.40
2023-04-27T07:04:09.666Z,3.60
2023-04-27T07:06:11.589Z,3.00
2023-04-27T07:08:13.237Z,2.80
2023-04-27T07:10:15.105Z,3.10
2023-04-27T07:12:16.915Z,3.30
2023-04-27T07:14:18.660Z,2.90
2023-04-27T07:16:20.480Z,3.47
2023-04-27T07:18:22.243Z,3.27
2023-04-27T07:20:24.271Z,3.23
2023-04-27T07:22:25.989Z,2.97
2023-04-27T07:24:27.752Z,3.90
2023-04-27T07:26:29.614Z,3.43
2023-04-27T07:28:31.757Z,3.37
2023-04-27T07:30:36.547Z,3.60
2023-04-27T07:32:40.986Z,3.00
2023-04-27T07:34:52.906Z,3.27
2023-04-27T07:36:55.987Z,2.63
2023-04-27T07:38:58.780Z,3.00
2023-04-27T07:41:04.467Z,3.20
2023-04-27T07:43:06.271Z,3.60
2023-04-27T07:45:09.565Z,3.07
2023-04-27T07:47:11.283Z,2.80
2023-04-27T07:49:13.945Z,3.27
2023-04-27T07:51:17.565Z,3.00
2023-04-27T07:53:19.346Z,3.30
2023-04-27T07:55:23.449Z,4.00
2023-04-27T07:57:25.257Z,3.70
2023-04-27T07:59:29.717Z,3.60
2023-04-27T08:01:31.385Z,3.13
2023-04-27T08:03:33.238Z,2.97
2023-04-27T08:05:35.371Z,3.67
2023-04-27T08:07:42.520Z,2.90
2023-04-27T08:09:46.432Z,3.60
2023-04-27T08:11:48.109Z,3.50
2023-04-27T08:13:49.932Z,3.47
2023-04-27T08:15:54.249Z,3.73
2023-04-27T08:17:55.992Z,3.70
2023-04-27T08:19:57.634Z,3.70
2023-04-27T08:21:59.314Z,3.47
2023-04-27T08:24:01.113Z,3.17
2023-04-27T08:26:03.454Z,3.53
2023-04-27T08:28:05.142Z,3.80
2023-04-27T08:30:07.770Z,3.27
2023-04-27T08:32:10.581Z,3.50
2023-04-27T08:34:12.580Z,3.23
2023-04-27T08:36:14.356Z,3.30
2023-04-27T08:38:16.101Z,3.20
2023-04-27T08:40:18.640Z,4.00
2023-04-27T08:42:20.434Z,3.27
2023-04-27T08:44:22.193Z,3.10
2023-04-27T08:46:27.249Z,4.10
2023-04-27T08:48:29.185Z,4.37
2023-04-27T08:50:31.462Z,3.80
2023-04-27T08:52:33.143Z,4.10
2023-04-27T08:54:35.794Z,3.73
2023-04-27T08:56:37.476Z,3.47
2023-04-27T08:58:39.488Z,3.30
2023-04-27T09:00:43.090Z,3.50
2023-04-27T09:02:46.800Z,3.40
2023-04-27T09:04:49.032Z,3.03
2023-04-27T09:06:51.502Z,2.70
2023-04-27T09:08:53.253Z,3.60
2023-04-27T09:10:55.756Z,3.20
2023-04-27T09:13:01.319Z,3.60
2023-04-27T09:15:05.436Z,3.50
2023-04-27T09:17:07.221Z,3.60
2023-04-27T09:19:09.159Z,3.17
2023-04-27T09:21:11.064Z,3.23
2023-04-27T09:23:28.942Z,2.90
2023-04-27T09:25:32.593Z,3.90
2023-04-27T09:27:34.355Z,2.70
2023-04-27T09:29:37.881Z,3.10
2023-04-27T09:31:39.688Z,2.20
2023-04-27T09:33:41.585Z,3.40
2023-04-27T09:35:46.721Z,2.90
2023-04-27T09:37:50.251Z,2.67
2023-04-27T09:39:51.986Z,2.50
2023-04-27T09:41:53.754Z,2.80
2023-04-27T09:43:57.716Z,2.83
2023-04-27T09:45:59.886Z,2.50
2023-04-27T09:48:02.740Z,3.07
2023-04-27T09:50:06.240Z,3.70
2023-04-27T09:52:07.941Z,3.40
2023-04-27T09:54:11.852Z,3.87
2023-04-27T09:56:26.324Z,3.20
2023-04-27T09:58:43.898Z,3.33
2023-04-27T10:01:16.833Z,3.37
2023-04-27T10:03:27.834Z,3.47
2023-04-27T10:05:43.145Z,3.43
2023-04-27T10:07:45.916Z,3.20
2023-04-27T10:09:54.257Z,3.80
2023-04-27T10:11:56.609Z,3.17
2023-04-27T10:13:58.366Z,3.07
2023-04-27T10:16:16.682Z,3.10
2023-04-27T10:18:31.214Z,3.40
2023-04-27T10:20:36.428Z,2.93
2023-04-27T10:22:46.236Z,3.40
2023-04-27T10:24:51.435Z,2.80
2023-04-27T10:26:53.142Z,2.77
2023-04-27T10:29:07.164Z,3.03
2023-04-27T10:31:12.262Z,3.00
2023-04-27T10:33:17.923Z,3.17
2023-04-27T10:35:21.736Z,3.70
2023-04-27T10:37:25.954Z,3.53
2023-04-27T10:39:47.078Z,3.20
2023-04-27T10:41:55.066Z,3.40
2023-04-27T10:44:13.153Z,3.97
2023-04-27T10:46:15.992Z,3.57
2023-04-27T10:48:17.872Z,3.20
2023-04-27T10:50:19.799Z,4.07
2023-04-27T10:52:21.588Z,3.00
2023-04-27T10:54:29.374Z,4.20
2023-04-27T10:56:33.920Z,4.47
2023-04-27T11:00:44.699Z,4.07
2023-04-27T11:02:46.780Z,4.67
2023-04-27T11:04:49.132Z,3.93
2023-04-27T11:06:50.856Z,4.03
2023-04-27T11:08:52.500Z,4.50
2023-04-27T11:10:54.140Z,4.23
2023-04-27T11:12:57.010Z,4.97
2023-04-27T11:14:59.103Z,4.00
2023-04-27T11:17:00.979Z,3.63
2023-04-27T11:19:06.748Z,4.37
2023-04-27T11:21:16.241Z,4.30
2023-04-27T11:23:37.020Z,3.77
2023-04-27T11:25:39.404Z,4.70
2023-04-27T11:27:42.132Z,4.00
2023-04-27T11:29:43.800Z,3.93
2023-04-27T11:31:51.702Z,4.87
2023-04-27T11:33:56.135Z,4.60
2023-04-27T11:35:58.369Z,4.00
2023-04-27T11:38:00.107Z,4.83
2023-04-27T11:40:01.947Z,4.00
2023-04-27T11:42:18.079Z,3.67
2023-04-27T11:44:26.450Z,3.93
2023-04-27T11:46:28.128Z,4.17
2023-04-27T11:48:30.665Z,5.03
2023-04-27T11:50:32.408Z,4.57
2023-04-27T11:52:36.187Z,6.97
2023-04-27T11:54:37.850Z,6.03
2023-04-27T11:56:41.467Z,6.17
2023-04-27T11:58:46.257Z,6.20
2023-04-27T12:00:48.254Z,8.37
2023-04-27T12:02:50.194Z,5.63
2023-04-27T12:04:52.487Z,6.20
2023-04-27T12:06:54.404Z,5.53
2023-04-27T12:08:57.699Z,6.30
2023-04-27T12:10:59.654Z,7.30
2023-04-27T12:13:01.433Z,8.70
2023-04-27T12:15:03.452Z,8.30
2023-04-27T12:17:05.473Z,7.10
2023-04-27T12:19:07.305Z,6.60
2023-04-27T12:21:10.409Z,6.30
2023-04-27T12:23:12.180Z,6.07
2023-04-27T12:25:15.036Z,6.03
2023-04-27T12:27:16.898Z,6.30
2023-04-27T12:29:18.608Z,5.87
2023-04-27T12:31:26.812Z,6.03
2023-04-27T12:33:29.797Z,5.80
2023-04-27T12:35:32.108Z,5.35
2023-04-27T12:37:34.367Z,6.70
2023-04-27T12:39:36.538Z,6.27
2023-04-27T12:41:38.261Z,5.97
2023-04-27T12:43:41.169Z,6.10
2023-04-27T12:45:43.326Z,5.93
2023-04-27T12:48:00.912Z,7.83
2023-04-27T12:50:03.964Z,7.07
2023-04-27T12:52:05.747Z,6.97
2023-04-27T12:54:08.750Z,6.53
2023-04-27T12:56:10.456Z,6.87
2023-04-27T12:58:12.109Z,7.20
2023-04-27T13:00:14.357Z,7.27
2023-04-27T13:02:16.531Z,6.67
2023-04-27T13:04:20.326Z,7.07
2023-04-27T13:06:22.953Z,6.67
2023-04-27T13:08:24.810Z,7.40
2023-04-27T13:10:26.534Z,7.30
2023-04-27T13:12:28.202Z,6.67
2023-04-27T13:14:32.017Z,6.50
2023-04-27T13:16:33.970Z,7.00
2023-04-27T13:18:35.773Z,6.30
2023-04-27T13:20:37.932Z,6.60
2023-04-27T13:22:40.730Z,6.70
2023-04-27T13:24:43.048Z,7.17
2023-04-27T13:26:44.858Z,6.60
2023-04-27T13:28:46.654Z,7.00
2023-04-27T13:30:48.880Z,6.20
2023-04-27T13:32:51.727Z,6.53
2023-04-27T13:34:53.438Z,6.80
2023-04-27T13:36:55.258Z,7.27
2023-04-27T13:38:57.148Z,7.30
2023-04-27T13:40:58.769Z,6.70
2023-04-27T13:43:00.666Z,6.63
2023-04-27T13:45:04.156Z,7.17
2023-04-27T13:47:06.772Z,5.60
2023-04-27T13:49:08.844Z,6.33
2023-04-27T13:51:10.640Z,5.60
2023-04-27T13:53:12.435Z,6.20
2023-04-27T13:55:14.254Z,6.07
2023-04-27T13:57:15.911Z,6.25
2023-04-27T13:59:17.820Z,6.27
2023-04-27T14:01:20.253Z,6.23
2023-04-27T14:03:22.913Z,5.93
2023-04-27T14:05:26.223Z,6.13
2023-04-27T14:07:27.946Z,6.30
2023-04-27T14:09:29.637Z,6.77
2023-04-27T14:11:35.461Z,6.13
2023-04-27T14:13:43.944Z,6.47
2023-04-27T14:15:45.902Z,7.93
2023-04-27T14:17:47.747Z,6.87
2023-04-27T14:19:49.409Z,6.80
2023-04-27T14:21:51.378Z,6.27
2023-04-27T14:23:53.126Z,5.87
2023-04-27T14:25:54.817Z,6.57
2023-04-27T14:27:56.504Z,5.40
2023-04-27T14:29:58.268Z,5.63
2023-04-27T14:32:00.940Z,4.50
2023-04-27T14:34:02.809Z,6.10
2023-04-27T14:36:04.558Z,6.00
2023-04-27T14:38:06.869Z,6.50
2023-04-27T14:40:09.227Z,6.20
2023-04-27T14:42:11.157Z,6.67
2023-04-27T14:44:12.821Z,6.00
2023-04-27T14:46:20.732Z,7.20
2023-04-27T14:48:22.782Z,6.43
2023-04-27T14:50:24.476Z,7.30
2023-04-27T14:52:26.750Z,6.57
2023-04-27T14:54:29.519Z,7.50
2023-04-27T14:56:31.211Z,6.73
2023-04-27T14:58:33.235Z,6.67
2023-04-27T15:00:34.935Z,5.87
2023-04-27T15:02:38.043Z,6.97
2023-04-27T15:04:40.186Z,6.37
2023-04-27T15:06:41.878Z,6.50
2023-04-27T15:08:43.718Z,7.60
2023-04-27T15:10:45.363Z,6.97
2023-04-27T15:12:47.052Z,6.60
2023-04-27T15:14:51.552Z,6.70
2023-04-27T15:16:53.190Z,7.03
2023-04-27T15:18:54.898Z,6.50
2023-04-27T15:20:57.864Z,6.50
2023-04-27T15:22:59.496Z,6.43
2023-04-27T15:25:01.241Z,6.10
2023-04-27T15:27:03.157Z,8.80
2023-04-27T15:29:04.807Z,6.47
2023-04-27T15:31:06.643Z,5.90
2023-04-27T15:33:10.308Z,6.27
2023-04-27T15:35:12.298Z,5.97
2023-04-27T15:37:14.096Z,6.70
2023-04-27T15:39:16.104Z,6.83
2023-04-27T15:41:18.427Z,6.30
2023-04-27T15:43:20.857Z,6.93
2023-04-27T15:45:22.680Z,6.10
2023-04-27T15:47:24.316Z,6.20
2023-04-27T15:49:26.016Z,6.40
2023-04-27T15:51:28.471Z,6.30
2023-04-27T15:53:30.451Z,6.77
2023-04-27T15:55:32.261Z,7.00
2023-04-27T15:57:34.227Z,5.60
2023-04-27T15:59:36.524Z,5.10
2023-04-27T16:01:38.246Z,5.87
2023-04-27T16:03:40.056Z,7.00
2023-04-27T16:05:41.919Z,6.97
2023-04-27T16:07:45.134Z,5.27
2023-04-27T16:09:46.850Z,6.10
2023-04-27T16:11:48.633Z,6.20
2023-04-27T16:13:50.240Z,5.97
2023-04-27T16:15:52.084Z,5.70
2023-04-27T16:17:53.795Z,6.03
2023-04-27T16:19:55.521Z,5.17
2023-04-27T16:21:57.469Z,5.90
2023-04-27T16:23:59.355Z,5.53
2023-04-27T16:26:01.120Z,6.20
2023-04-27T16:28:02.972Z,6.87
2023-04-27T16:30:05.754Z,5.83
2023-04-27T16:32:07.616Z,7.20
2023-04-27T16:34:09.402Z,7.00
2023-04-27T16:36:11.385Z,6.57
2023-04-27T16:38:13.730Z,7.90
2023-04-27T16:40:15.910Z,6.37
2023-04-27T16:42:20.595Z,6.37
2023-04-27T16:44:23.731Z,6.03
2023-04-27T16:46:25.571Z,6.20
2023-04-27T16:48:27.665Z,5.43
2023-04-27T16:50:31.551Z,6.60
2023-04-27T16:52:33.262Z,6.10
2023-04-27T16:54:35.035Z,5.23
2023-04-27T16:56:37.089Z,6.50
2023-04-27T16:58:38.803Z,6.00
2023-04-27T17:00:40.914Z,6.60
2023-04-27T17:02:43.858Z,7.23
2023-04-27T17:04:46.013Z,6.03
2023-04-27T17:06:48.537Z,5.70
2023-04-27T17:08:50.321Z,6.07
2023-04-27T17:10:53.419Z,5.93
2023-04-27T17:12:55.204Z,5.63
2023-04-27T17:14:56.968Z,5.90
2023-04-27T17:16:59.888Z,6.90
2023-04-27T17:19:01.631Z,5.40
2023-04-27T17:21:03.417Z,5.23
2023-04-27T17:23:06.202Z,5.53
2023-04-27T17:25:09.229Z,6.10
2023-04-27T17:27:11.399Z,5.40
2023-04-27T17:29:13.256Z,5.40
2023-04-27T17:31:17.087Z,4.87
2023-04-27T17:33:18.903Z,4.60
2023-04-27T17:35:20.750Z,4.87
2023-04-27T17:37:22.400Z,5.63
2023-04-27T17:39:25.104Z,5.33
2023-04-27T17:41:27.058Z,5.00
2023-04-27T17:43:28.810Z,4.60
2023-04-27T17:45:31.850Z,6.30
2023-04-27T17:47:33.814Z,4.10
2023-04-27T17:49:36.006Z,5.10
2023-04-27T17:51:37.663Z,4.73
2023-04-27T17:53:39.380Z,5.20
2023-04-27T17:55:54.405Z,4.90
2023-04-27T17:57:56.079Z,5.20
2023-04-27T17:59:57.889Z,5.40
2023-04-27T18:01:59.865Z,5.00
2023-04-27T18:04:04.229Z,5.10
2023-04-27T18:06:06.672Z,4.40
2023-04-27T18:08:08.408Z,4.60
2023-04-27T18:10:10.381Z,4.63
2023-04-27T18:12:12.326Z,5.17
2023-04-27T18:14:15.026Z,4.90
2023-04-27T18:16:16.791Z,5.13
2023-04-27T18:18:22.577Z,4.53
2023-04-27T18:20:27.911Z,4.70
2023-04-27T18:22:29.911Z,4.60
2023-04-27T18:24:31.550Z,4.50
2023-04-27T18:26:36.120Z,4.57
2023-04-27T18:28:39.982Z,5.20
2023-04-27T18:30:41.827Z,4.20
2023-04-27T18:32:43.633Z,5.17
2023-04-27T18:34:45.301Z,4.70
2023-04-27T18:36:51.808Z,4.57
2023-04-27T18:38:54.583Z,4.70
2023-04-27T18:40:56.412Z,3.90
2023-04-27T18:42:58.192Z,4.43
2023-04-27T18:45:00.804Z,4.57
2023-04-27T18:47:03.369Z,5.23
2023-04-27T18:49:05.074Z,4.47
2023-04-27T18:51:06.726Z,4.67
2023-04-27T18:53:08.434Z,4.40
2023-04-27T18:55:10.621Z,5.00
2023-04-27T18:57:12.360Z,6.17
2023-04-27T18:59:14.279Z,7.07
2023-04-27T19:01:23.418Z,5.93
2023-04-27T19:03:25.290Z,6.83
2023-04-27T19:05:27.061Z,8.77
2023-04-27T19:07:28.886Z,5.93
2023-04-27T19:09:30.609Z,4.77
2023-04-27T19:11:32.318Z,4.47
2023-04-27T19:13:34.106Z,4.30
2023-04-27T19:15:35.805Z,7.10
2023-04-27T19:17:37.880Z,9.00
2023-04-27T19:19:39.668Z,5.40
2023-04-27T19:21:43.465Z,4.23
2023-04-27T19:23:45.530Z,4.47
2023-04-27T19:25:48.232Z,4.10
2023-04-27T19:27:50.039Z,4.10
2023-04-27T19:30:02.472Z,4.20
2023-04-27T19:32:04.826Z,3.73
2023-04-27T19:34:06.512Z,4.23
2023-04-27T19:36:08.235Z,4.17
2023-04-27T19:38:10.493Z,3.80
2023-04-27T19:40:12.590Z,4.10
2023-04-27T19:42:15.305Z,3.97
2023-04-27T19:44:16.983Z,4.07
2023-04-27T19:46:18.648Z,3.80
2023-04-27T19:48:20.383Z,3.83
2023-04-27T19:50:22.222Z,3.90
2023-04-27T19:52:25.787Z,4.17
2023-04-27T19:54:27.790Z,3.80
2023-04-27T19:56:29.705Z,3.60
2023-04-27T19:58:31.712Z,3.70
2023-04-27T20:00:33.547Z,3.73
2023-04-27T20:02:36.404Z,3.77
2023-04-27T20:04:39.844Z,3.90
2023-04-27T20:06:43.371Z,3.40
2023-04-27T20:08:45.273Z,3.53
2023-04-27T20:10:47.299Z,3.57
2023-04-27T20:12:56.866Z,3.80
2023-04-27T20:14:59.259Z,3.50
2023-04-27T20:17:02.323Z,3.50
2023-04-27T20:19:06.110Z,3.67
2023-04-27T20:21:07.887Z,3.40
2023-04-27T20:23:09.627Z,3.53
2023-04-27T20:25:13.857Z,3.37
2023-04-27T20:27:15.635Z,3.33
2023-04-27T20:29:17.460Z,2.77
2023-04-27T20:31:19.267Z,2.67
2023-04-27T20:33:21.049Z,2.93
2023-04-27T20:35:24.049Z,3.20
2023-04-27T20:37:26.150Z,2.80
2023-04-27T20:39:27.824Z,3.03
2023-04-27T20:41:30.406Z,3.47
2023-04-27T20:43:32.720Z,3.17
2023-04-27T20:45:34.637Z,2.90
2023-04-27T20:47:36.577Z,2.57
2023-04-27T20:49:38.275Z,2.83
2023-04-27T20:51:40.035Z,3.13
2023-04-27T20:53:41.760Z,3.40
2023-04-27T20:55:43.423Z,3.10
2023-04-27T20:57:45.139Z,3.17
2023-04-27T20:59:46.864Z,2.97
2023-04-27T21:01:48.550Z,2.93
2023-04-27T21:03:50.462Z,2.57
2023-04-27T21:05:52.362Z,3.27
2023-04-27T21:07:53.985Z,2.90
2023-04-27T21:09:55.680Z,2.93
2023-04-27T21:11:57.381Z,2.83
2023-04-27T21:13:59.046Z,3.20
2023-04-27T21:16:00.920Z,2.70
2023-04-27T21:18:05.034Z,2.50
2023-04-27T21:20:09.839Z,2.60
2023-04-27T21:22:11.663Z,2.73
2023-04-27T21:24:13.396Z,2.83
2023-04-27T21:26:15.070Z,2.87
2023-04-27T21:28:16.774Z,2.60
2023-04-27T21:30:18.783Z,2.90
2023-04-27T21:32:20.770Z,3.90
2023-04-27T21:34:22.424Z,3.23
2023-04-27T21:36:24.133Z,2.73
2023-04-27T21:38:25.811Z,2.80
2023-04-27T21:40:27.704Z,3.07
2023-04-27T21:42:29.354Z,2.97
2023-04-27T21:44:31.064Z,2.50
2023-04-27T21:46:32.746Z,2.70
2023-04-27T21:48:34.424Z,3.03
2023-04-27T21:50:36.276Z,2.57
2023-04-27T21:52:38.107Z,3.07
2023-04-27T21:54:39.881Z,3.13
2023-04-27T21:56:41.781Z,3.03
2023-04-27T21:58:43.475Z,3.10
2023-04-27T22:00:45.144Z,3.07
2023-04-27T22:02:47.034Z,3.33
2023-04-27T22:04:49.896Z,3.20
2023-04-27T22:06:52.506Z,2.90
2023-04-27T22:08:54.229Z,2.97
2023-04-27T22:10:56.866Z,2.70
2023-04-27T22:13:02.539Z,3.13
2023-04-27T22:15:10.263Z,3.80
2023-04-27T22:17:12.464Z,3.00
2023-04-27T22:19:14.360Z,3.33
2023-04-27T22:21:16.071Z,2.77
2023-04-27T22:23:18.236Z,3.03
2023-04-27T22:25:20.706Z,3.03
2023-04-27T22:27:22.744Z,2.53
2023-04-27T22:29:25.702Z,3.30
2023-04-27T22:31:27.368Z,3.10
2023-04-27T22:33:29.062Z,2.70
2023-04-27T22:35:30.897Z,3.00
2023-04-27T22:37:33.442Z,3.03
2023-04-27T22:39:35.268Z,3.07
2023-04-27T22:41:37.187Z,3.40
2023-04-27T22:43:38.960Z,2.77
2023-04-27T22:45:40.592Z,3.20
2023-04-27T22:47:44.416Z,3.00
2023-04-27T22:49:46.762Z,3.90
2023-04-27T22:51:48.411Z,2.80
2023-04-27T22:53:50.224Z,2.33
2023-04-27T22:55:51.878Z,3.40
2023-04-27T22:57:53.928Z,2.70
2023-04-27T22:59:56.557Z,3.10
2023-04-27T23:01:58.521Z,2.90
2023-04-27T23:04:00.442Z,2.67
2023-04-27T23:06:02.127Z,3.63
2023-04-27T23:08:05.610Z,3.00
2023-04-27T23:10:08.035Z,2.63
2023-04-27T23:12:10.936Z,2.73
2023-04-27T23:14:12.615Z,2.83
2023-04-27T23:16:14.864Z,2.60
2023-04-27T23:18:16.934Z,2.87
2023-04-27T23:20:28.064Z,2.80
2023-04-27T23:22:30.781Z,2.70
2023-04-27T23:24:32.555Z,2.83
2023-04-27T23:26:34.250Z,2.97
2023-04-27T23:28:36.531Z,2.90
2023-04-27T23:30:38.284Z,3.03
2023-04-27T23:32:39.983Z,3.30
2023-04-27T23:34:41.694Z,3.10
2023-04-27T23:36:43.629Z,2.67
2023-04-27T23:38:45.322Z,3.67
2023-04-27T23:40:46.980Z,3.37
2023-04-27T23:42:50.841Z,2.50
2023-04-27T23:44:53.294Z,2.80
2023-04-27T23:46:55.145Z,2.97
2023-04-27T23:48:56.858Z,2.93
2023-04-27T23:51:02.845Z,2.80
2023-04-27T23:53:04.605Z,2.70
2023-04-27T23:55:07.076Z,2.50
2023-04-27T23:57:08.726Z,3.43
2023-04-27T23:59:10.982Z,2.70
